Monday, December 18, 2017, 3:33 PM EST
Back to Local

KBAF, Westfield Barnes Municipal

Location: Westfield, MA, United States Lat: 42.167
Local Time: 3:33 PM EST (20:33 GMT) Lon: -72.717
Time Zone: US/Eastern Elev: 272 ft

Show me the last for .
Show Decoded

2017-12-18 14:53 METAR KBAF 181953Z 00000KT 10SM FEW016 SCT034 OVC055 01/M07 A2996 RMK AO2 SLP152
                 T00061072 =
2017-12-18 14:44 METAR KBAF 181944Z 00000KT 10SM SCT016 BKN034 OVC055 01/M07 A2996 RMK AO2
                 T00061067 =
2017-12-18 13:53 METAR KBAF 181853Z 16003KT 10SM OVC018 00/M07 A2997 RMK AO2 SLP157 T00001072 =
2017-12-18 12:53 METAR KBAF 181753Z 21003KT 10SM OVC018 M01/M08 A3001 RMK AO2 SLP169 T10111083
                 11011 21050 58035 =
2017-12-18 11:53 METAR KBAF 181653Z 00000KT 10SM OVC018 M02/M11 A3006 RMK AO2 SLP187 T10221106 =
2017-12-18 10:53 METAR KBAF 181553Z 00000KT 10SM OVC021 M02/M11 A3008 RMK AO2 SLP196 T10221106 =
2017-12-18 09:53 METAR KBAF 181453Z 00000KT 10SM OVC020 M03/M11 A3011 RMK AO2 SLP204 T10331106
                 58017 =
2017-12-18 08:53 METAR KBAF 181353Z 00000KT 10SM OVC019 M04/M11 A3013 RMK AO2 SLP212 T10391111 =
2017-12-18 07:53 METAR KBAF 181253Z 00000KT 10SM OVC020 M04/M11 A3015 RMK AO2 SLP217 T10441106 =
2017-12-18 06:53 METAR KBAF 181153Z 35003KT 10SM OVC021 M05/M10 A3016 RMK AO2 SLP221 T10501100
                 11044 21050 55008 =
2017-12-18 05:53 METAR KBAF 181053Z AUTO 00000KT 10SM OVC019 M05/M11 A3016 RMK AO2 SLP219
                 T10501111 =
2017-12-18 04:53 METAR KBAF 180953Z AUTO 36003KT 10SM OVC020 M05/M11 A3017 RMK AO2 SLP223
                 T10501111 =
2017-12-18 03:53 METAR KBAF 180853Z AUTO 00000KT 10SM OVC023 M05/M11 A3018 RMK AO2 SLP229
                 T10501111 58006 =
2017-12-18 03:16 METAR KBAF 180816Z AUTO 02003KT 10SM BKN024 OVC050 M05/M12 A3020 RMK AO2
                 T10501122 =
2017-12-18 02:53 METAR KBAF 180753Z AUTO 03004KT 10SM OVC050 M05/M12 A3020 RMK AO2 SLP233
                 T10501117 =
2017-12-18 01:53 METAR KBAF 180653Z AUTO 00000KT 10SM BKN050 OVC065 M05/M11 A3020 RMK AO2 SLP236
                 T10501111 =
2017-12-18 00:53 METAR KBAF 180553Z AUTO 36003KT 10SM OVC070 M05/M10 A3020 RMK AO2 SLP235
                 T10501100 11033 21061 58017 =
2017-12-17 23:53 METAR KBAF 180453Z AUTO 00000KT 10SM BKN075 BKN085 M06/M12 A3022 RMK AO2 SLP242
                 T10561117 410171150 =
2017-12-17 22:53 METAR KBAF 180353Z AUTO 01003KT 10SM CLR M06/M12 A3024 RMK AO2 SLP248 T10561117
                 =
2017-12-17 21:53 METAR KBAF 180253Z 00000KT 10SM CLR M05/M11 A3025 RMK AO2 SLP253 T10501111 58001
                 =
2017-12-17 20:53 METAR KBAF 180153Z 00000KT 10SM CLR M04/M13 A3026 RMK AO2 SLP256 T10391128 =
2017-12-17 19:53 METAR KBAF 180053Z 26003KT 10SM CLR M04/M13 A3027 RMK AO2 SLP262 T10391133 =
2017-12-17 18:53 METAR KBAF 172353Z 29006KT 10SM CLR M03/M15 A3025 RMK AO2 SLP255 T10331150 11017
                 21033 53007 =
2017-12-17 17:53 METAR KBAF 172253Z 26004KT 10SM CLR M03/M15 A3025 RMK AO2 SLP254 T10331150 =
2017-12-17 16:53 METAR KBAF 172153Z 35003KT 10SM CLR M03/M15 A3023 RMK AO2 SLP247 T10281150 =
2017-12-17 15:53 METAR KBAF 172053Z 31006KT 10SM CLR M02/M14 A3023 RMK AO2 SLP247 T10221139 55000
                 =

Support USWX by starting your Amazon purchase here.